Time;durP1;ratioP1;P1;durP2;ratioP2;P2;SDS_P1;SDS_P2;PMS_P1;PMS_P2;Temp;Humidity;BMP_temperature;BMP_pressure;BME280_temperature;BME280_humidity;BME280_pressure;Samples;Min_cycle;Max_cycle;Signal;HPM_P1;HPM_P2
2022/05/08 00:00:32;;;;;;;23.10;19.38;;;16.70;99.90;;;;;;5071430;28;20051;-71
2022/05/08 00:02:58;;;;;;;23.98;18.77;;;16.70;99.90;;;;;;5072278;28;20457;-72
2022/05/08 00:05:25;;;;;;;21.02;17.80;;;16.70;99.90;;;;;;5071733;28;20033;-73
2022/05/08 00:07:50;;;;;;;19.40;17.27;;;16.60;99.90;;;;;;5072488;28;20032;-72
2022/05/08 00:10:16;;;;;;;18.67;16.77;;;16.60;99.90;;;;;;5072360;28;20028;-72
2022/05/08 00:12:42;;;;;;;19.27;16.95;;;16.60;99.90;;;;;;5087929;28;20038;-73
2022/05/08 00:15:08;;;;;;;19.13;16.42;;;16.60;99.90;;;;;;5087566;28;20460;-72
2022/05/08 00:17:36;;;;;;;20.15;15.98;;;16.50;99.90;;;;;;5071315;28;20035;-73
2022/05/08 00:20:05;;;;;;;18.13;16.30;;;16.50;99.90;;;;;;5072086;28;20028;-72
2022/05/08 00:22:30;;;;;;;19.77;17.67;;;16.50;99.90;;;;;;5071347;28;20020;-72
2022/05/08 00:24:56;;;;;;;19.05;16.83;;;16.40;99.90;;;;;;5071442;28;20412;-72
2022/05/08 00:27:22;;;;;;;20.30;17.67;;;16.40;99.90;;;;;;5082143;28;20043;-72
2022/05/08 00:29:47;;;;;;;21.65;18.20;;;16.40;99.90;;;;;;5092002;28;20040;-72
2022/05/08 00:32:13;;;;;;;21.23;19.00;;;16.40;99.90;;;;;;5091908;28;20457;-72
2022/05/08 00:34:39;;;;;;;21.55;19.23;;;16.30;99.90;;;;;;5091587;28;20020;-72
2022/05/08 00:37:05;;;;;;;24.25;19.45;;;16.20;99.90;;;;;;5092071;28;20093;-73
2022/05/08 00:39:32;;;;;;;22.23;19.85;;;16.20;99.90;;;;;;5091377;28;20028;-72
2022/05/08 00:41:58;;;;;;;23.38;20.50;;;16.10;99.90;;;;;;5091994;28;20107;-72
2022/05/08 00:44:24;;;;;;;23.55;19.70;;;16.10;99.90;;;;;;5091390;28;20035;-72
2022/05/08 00:46:50;;;;;;;22.75;19.35;;;16.10;99.90;;;;;;5092165;28;20028;-73
2022/05/08 00:49:15;;;;;;;22.02;19.70;;;16.10;99.90;;;;;;5091876;28;20495;-73
2022/05/08 00:51:43;;;;;;;21.35;19.15;;;16.10;99.90;;;;;;5091067;28;20047;-72
2022/05/08 00:54:09;;;;;;;23.95;20.10;;;16.10;99.90;;;;;;5091655;28;20111;-71
2022/05/08 00:56:35;;;;;;;24.65;20.33;;;16.10;99.90;;;;;;5090994;28;20059;-72
2022/05/08 00:59:01;;;;;;;23.10;20.15;;;16.00;99.90;;;;;;5091521;28;20134;-72
2022/05/08 01:01:28;;;;;;;21.80;19.60;;;16.00;99.90;;;;;;5091216;28;20027;-73
2022/05/08 01:03:54;;;;;;;22.45;20.15;;;16.00;99.90;;;;;;5091814;28;20024;-73
2022/05/08 01:06:19;;;;;;;25.25;20.45;;;16.00;99.90;;;;;;5091754;28;20146;-73
2022/05/08 01:08:47;;;;;;;22.77;20.40;;;16.00;99.90;;;;;;5090963;28;20078;-73
2022/05/08 01:11:13;;;;;;;23.55;20.48;;;16.00;99.90;;;;;;5091561;28;20119;-73
2022/05/08 01:13:41;;;;;;;25.10;21.60;;;16.00;99.90;;;;;;5091158;28;20024;-73
2022/05/08 01:16:08;;;;;;;24.40;20.92;;;16.00;99.90;;;;;;5107165;28;20063;-73
2022/05/08 01:18:34;;;;;;;24.17;21.58;;;15.90;99.90;;;;;;5091297;28;20028;-73
2022/05/08 01:21:00;;;;;;;24.88;22.17;;;15.90;99.90;;;;;;5091658;28;20107;-71
2022/05/08 01:23:25;;;;;;;25.45;22.83;;;15.90;99.90;;;;;;5091139;28;20085;-72
2022/05/08 01:25:53;;;;;;;24.13;21.63;;;15.90;99.90;;;;;;5091865;28;20032;-72
2022/05/08 01:28:19;;;;;;;23.35;21.15;;;15.80;99.90;;;;;;5091250;28;20085;-73
2022/05/08 01:30:47;;;;;;;25.48;22.80;;;15.80;99.90;;;;;;5091084;28;20024;-73
2022/05/08 01:33:13;;;;;;;23.25;20.90;;;15.80;99.90;;;;;;5091655;28;20023;-73
2022/05/08 01:35:39;;;;;;;25.75;22.60;;;15.80;99.90;;;;;;5090782;28;20020;-73
2022/05/08 01:38:07;;;;;;;25.45;22.40;;;15.80;99.90;;;;;;5093351;28;20099;-73
2022/05/08 01:40:32;;;;;;;25.05;22.50;;;15.80;99.90;;;;;;5091296;28;20405;-73
2022/05/08 01:42:59;;;;;;;25.23;22.52;;;15.80;99.90;;;;;;5074887;28;20063;-72
2022/05/08 01:45:25;;;;;;;26.80;24.00;;;15.80;99.90;;;;;;5074184;28;20454;-73
2022/05/08 01:50:36;;;;;;;27.30;23.83;;;15.80;99.90;;;;;;5074482;28;20114;-73
2022/05/08 01:53:02;;;;;;;25.75;23.17;;;15.80;99.90;;;;;;5074922;28;20074;-73
2022/05/08 01:55:28;;;;;;;26.27;23.58;;;15.70;99.90;;;;;;5074263;28;20032;-73
2022/05/08 01:57:54;;;;;;;27.05;23.48;;;15.70;99.90;;;;;;5074571;28;20082;-74
2022/05/08 02:00:21;;;;;;;26.48;23.63;;;15.70;99.90;;;;;;5074810;28;20027;-73
2022/05/08 02:02:48;;;;;;;28.70;25.30;;;15.70;99.90;;;;;;5074268;28;20161;-73
2022/05/08 02:05:18;;;;;;;27.02;24.25;;;15.60;99.90;;;;;;5073398;28;20035;-73
2022/05/08 02:07:45;;;;;;;26.92;24.23;;;15.70;99.90;;;;;;5074360;28;20052;-73
2022/05/08 02:10:12;;;;;;;28.90;23.55;;;15.60;99.90;;;;;;5074568;28;20036;-73
2022/05/08 02:12:38;;;;;;;26.45;23.75;;;15.70;99.90;;;;;;5074004;28;20024;-73
2022/05/08 02:15:06;;;;;;;26.17;23.38;;;15.70;99.90;;;;;;5074575;28;20049;-73
2022/05/08 02:17:32;;;;;;;25.50;22.83;;;15.70;99.90;;;;;;5073590;28;20104;-74
2022/05/08 02:19:57;;;;;;;27.77;24.02;;;15.70;99.90;;;;;;5074680;28;20063;-73
2022/05/08 02:22:23;;;;;;;26.45;23.73;;;15.70;99.90;;;;;;5074143;28;20027;-72
2022/05/08 02:24:49;;;;;;;27.02;24.40;;;15.80;99.90;;;;;;5073723;28;20032;-73
2022/05/08 02:27:16;;;;;;;26.55;23.60;;;15.80;99.90;;;;;;5074250;28;20036;-73
2022/05/08 02:29:41;;;;;;;27.02;24.27;;;15.80;99.90;;;;;;5073524;28;20040;-73
2022/05/08 02:32:07;;;;;;;26.35;23.73;;;15.80;99.90;;;;;;5092852;28;20028;-72
2022/05/08 02:34:33;;;;;;;24.77;22.30;;;15.80;99.90;;;;;;5093809;28;20115;-72
2022/05/08 02:36:59;;;;;;;23.92;21.60;;;15.90;99.90;;;;;;5094011;28;20111;-73
2022/05/08 02:39:24;;;;;;;25.75;22.85;;;15.90;99.90;;;;;;5094566;28;20043;-74
2022/05/08 02:41:50;;;;;;;28.35;23.75;;;15.90;99.90;;;;;;5093694;28;20024;-72
2022/05/08 02:44:16;;;;;;;26.77;23.98;;;15.90;99.90;;;;;;5094196;28;20377;-73
2022/05/08 02:46:42;;;;;;;26.20;22.23;;;15.90;99.90;;;;;;5093395;28;20030;-74
2022/05/08 02:49:07;;;;;;;25.65;23.05;;;16.00;99.90;;;;;;5094138;28;20032;-73
2022/05/08 02:51:33;;;;;;;28.20;23.05;;;16.00;99.90;;;;;;5093512;28;20509;-74
2022/05/08 02:53:59;;;;;;;26.98;24.08;;;16.00;99.90;;;;;;5094037;28;20427;-73
2022/05/08 02:59:10;;;;;;;27.17;24.30;;;16.00;99.90;;;;;;5093700;28;20078;-72
2022/05/08 03:01:36;;;;;;;26.58;23.73;;;16.00;99.90;;;;;;5093298;28;20039;-72
2022/05/08 03:04:01;;;;;;;25.65;22.95;;;16.00;99.90;;;;;;5093743;28;20020;-73
2022/05/08 03:06:27;;;;;;;27.15;24.08;;;16.00;99.90;;;;;;5093486;28;20028;-73
2022/05/08 03:08:53;;;;;;;27.50;24.85;;;16.00;99.90;;;;;;5093031;28;20222;-73
2022/05/08 03:11:25;;;;;;;30.27;25.00;;;16.00;99.90;;;;;;5093526;28;20024;-73
2022/05/08 03:13:51;;;;;;;27.27;24.45;;;16.00;99.90;;;;;;5093105;28;20038;-74
2022/05/08 03:16:17;;;;;;;27.13;24.05;;;16.00;99.90;;;;;;5093298;28;20453;-74
2022/05/08 03:18:45;;;;;;;27.05;24.08;;;16.00;99.90;;;;;;5092822;28;20036;-74
2022/05/08 03:21:12;;;;;;;27.67;24.30;;;16.00;99.90;;;;;;5093501;28;20055;-73
2022/05/08 03:23:40;;;;;;;28.83;25.25;;;16.00;99.90;;;;;;5092874;28;20127;-73
2022/05/08 03:26:28;;;;;;;30.42;26.08;;;16.00;99.90;;;;;;5093406;28;20031;-73
2022/05/08 03:28:53;;;;;;;29.20;24.85;;;16.00;99.90;;;;;;5092664;28;20039;-74
2022/05/08 03:31:20;;;;;;;27.60;24.80;;;16.00;99.90;;;;;;5093397;28;20020;-74
2022/05/08 03:33:46;;;;;;;30.17;25.65;;;16.00;99.90;;;;;;5091134;28;20068;-74
2022/05/08 03:36:11;;;;;;;32.55;26.13;;;16.00;99.90;;;;;;5093380;28;20051;-75
2022/05/08 03:38:44;;;;;;;29.52;26.25;;;16.00;99.90;;;;;;5092552;28;20035;-75
2022/05/08 03:41:15;;;;;;;30.20;26.42;;;16.00;99.90;;;;;;5093242;28;20464;-75
2022/05/08 03:43:42;;;;;;;31.50;28.10;;;15.90;99.90;;;;;;5092685;28;20034;-75
2022/05/08 03:46:08;;;;;;;33.63;27.00;;;15.90;99.90;;;;;;5093049;28;20092;-74
2022/05/08 03:48:35;;;;;;;29.75;26.48;;;15.90;99.90;;;;;;5092413;28;20040;-74
2022/05/08 03:51:01;;;;;;;32.15;26.70;;;15.90;99.90;;;;;;5092966;28;20032;-74
2022/05/08 03:53:27;;;;;;;31.98;28.20;;;15.90;99.90;;;;;;5092845;28;20165;-74
2022/05/08 03:55:52;;;;;;;31.23;27.92;;;15.90;99.90;;;;;;5092212;28;20349;-74
2022/05/08 03:58:18;;;;;;;32.08;28.55;;;15.90;99.90;;;;;;5092498;28;20036;-74
2022/05/08 04:00:44;;;;;;;33.03;28.52;;;15.90;99.90;;;;;;5091526;28;20047;-74
2022/05/08 04:03:10;;;;;;;32.53;29.02;;;15.90;99.90;;;;;;5092453;28;20073;-74
2022/05/08 04:05:35;;;;;;;32.78;29.20;;;15.90;99.90;;;;;;5091932;28;20028;-74
2022/05/08 04:08:01;;;;;;;32.50;29.00;;;15.90;99.90;;;;;;5092828;28;20020;-74
2022/05/08 04:10:27;;;;;;;34.83;29.67;;;15.90;99.90;;;;;;5092297;28;20457;-74
2022/05/08 04:12:53;;;;;;;32.45;28.95;;;15.90;99.90;;;;;;5091701;28;20020;-74
2022/05/08 04:18:03;;;;;;;36.78;28.40;;;15.90;99.90;;;;;;5090154;28;20081;-75
2022/05/08 04:20:29;;;;;;;34.67;28.75;;;15.90;99.90;;;;;;5091989;28;20410;-75
2022/05/08 04:25:39;;;;;;;32.40;28.73;;;15.90;99.90;;;;;;5090165;28;20030;-73
2022/05/08 04:28:04;;;;;;;31.98;28.55;;;16.00;99.90;;;;;;5091845;28;20046;-74
2022/05/08 04:30:30;;;;;;;32.17;28.20;;;16.00;99.90;;;;;;5092156;28;20024;-75
2022/05/08 04:32:56;;;;;;;33.05;29.58;;;16.00;99.90;;;;;;5091632;28;20285;-73
2022/05/08 04:35:21;;;;;;;31.48;28.23;;;16.00;99.90;;;;;;5090760;28;20452;-76
2022/05/08 04:37:47;;;;;;;32.55;29.13;;;16.00;99.90;;;;;;5091296;28;20111;-75
2022/05/08 04:40:12;;;;;;;29.77;26.73;;;15.90;99.90;;;;;;5091757;28;20102;-75
2022/05/08 04:42:39;;;;;;;31.95;27.48;;;15.90;99.90;;;;;;5091144;28;20099;-75
2022/05/08 04:45:05;;;;;;;32.25;28.60;;;15.90;99.90;;;;;;5091906;28;20028;-75
2022/05/08 04:47:31;;;;;;;29.30;26.48;;;15.90;99.90;;;;;;5091740;28;20102;-75
2022/05/08 04:49:56;;;;;;;30.58;27.05;;;15.90;99.90;;;;;;5091024;28;20657;-74
2022/05/08 04:52:22;;;;;;;32.53;26.77;;;15.90;99.90;;;;;;5091601;28;20032;-75
2022/05/08 04:54:48;;;;;;;32.58;29.20;;;16.00;99.90;;;;;;5091126;28;20031;-74
2022/05/08 04:57:13;;;;;;;31.40;28.25;;;16.00;99.90;;;;;;5091910;28;20035;-75
2022/05/08 04:59:39;;;;;;;30.25;26.65;;;16.00;99.90;;;;;;5091357;28;20047;-74
2022/05/08 05:02:05;;;;;;;27.30;24.38;;;16.00;99.90;;;;;;5091453;28;20116;-75
2022/05/08 05:04:31;;;;;;;30.33;26.25;;;16.00;99.90;;;;;;5091873;28;20471;-75
2022/05/08 05:07:15;;;;;;;28.75;25.05;;;16.00;99.90;;;;;;5091288;28;20043;-75
2022/05/08 05:09:41;;;;;;;28.92;25.92;;;16.00;99.90;;;;;;5090599;28;20477;-75
2022/05/08 05:12:07;;;;;;;27.88;25.05;;;16.00;99.90;;;;;;5091486;28;20032;-75
2022/05/08 05:14:32;;;;;;;30.02;26.20;;;16.00;99.90;;;;;;5095621;28;20048;-79
2022/05/08 05:17:00;;;;;;;30.52;27.25;;;16.00;99.90;;;;;;5095454;28;20028;-76
2022/05/08 05:19:26;;;;;;;30.50;25.65;;;16.00;99.90;;;;;;5095722;28;20036;-77
2022/05/08 05:21:52;;;;;;;31.67;27.25;;;16.00;99.90;;;;;;5095394;28;20067;-76
2022/05/08 05:24:18;;;;;;;29.30;25.38;;;16.00;99.90;;;;;;5095853;28;20469;-79
2022/05/08 05:26:43;;;;;;;29.17;26.05;;;16.00;99.90;;;;;;5095207;28;20046;-81
2022/05/08 05:29:09;;;;;;;29.67;26.00;;;16.10;99.90;;;;;;5095518;28;20028;-77
2022/05/08 05:31:34;;;;;;;27.38;24.40;;;16.10;99.90;;;;;;5095529;28;20032;-76
2022/05/08 05:34:00;;;;;;;27.75;24.77;;;16.10;99.90;;;;;;5094648;28;20028;-75
2022/05/08 05:36:26;;;;;;;27.42;23.67;;;16.10;99.90;;;;;;5095373;28;20450;-77
2022/05/08 05:38:51;;;;;;;28.02;25.00;;;16.10;99.90;;;;;;5094444;28;20499;-75
2022/05/08 05:41:17;;;;;;;25.95;22.48;;;16.10;99.90;;;;;;5078178;28;20024;-77
2022/05/08 05:43:43;;;;;;;26.95;24.15;;;16.10;99.90;;;;;;5090352;28;20427;-74
2022/05/08 05:48:52;;;;;;;26.92;23.27;;;16.20;99.90;;;;;;5094465;28;20078;-77
2022/05/08 05:51:18;;;;;;;26.17;23.35;;;16.20;99.90;;;;;;5095033;28;20024;-76
2022/05/08 05:53:44;;;;;;;27.50;22.63;;;16.20;99.90;;;;;;5094235;28;20077;-76
2022/05/08 05:56:09;;;;;;;26.23;22.25;;;16.20;99.90;;;;;;5095178;28;20032;-76
2022/05/08 05:58:35;;;;;;;27.58;22.80;;;16.20;99.90;;;;;;5093906;28;20157;-77
2022/05/08 06:01:01;;;;;;;26.60;22.85;;;16.30;99.90;;;;;;5094379;28;20024;-77
2022/05/08 06:03:27;;;;;;;27.35;22.85;;;16.30;99.90;;;;;;5095029;28;20039;-77
2022/05/08 06:05:53;;;;;;;28.10;23.27;;;16.20;99.90;;;;;;5094065;28;20103;-77
2022/05/08 06:08:18;;;;;;;26.40;22.88;;;16.30;99.90;;;;;;5094777;28;20434;-77
2022/05/08 06:10:44;;;;;;;25.08;22.48;;;16.30;99.90;;;;;;5094418;28;20024;-75
2022/05/08 06:13:10;;;;;;;26.60;23.48;;;16.30;99.90;;;;;;5094626;28;20089;-77
2022/05/08 06:15:35;;;;;;;25.27;22.60;;;16.30;99.90;;;;;;5094658;28;20119;-76
2022/05/08 06:18:01;;;;;;;27.13;22.95;;;16.40;99.90;;;;;;5093866;28;20029;-77
2022/05/08 06:20:27;;;;;;;23.92;21.23;;;16.40;99.90;;;;;;5094799;28;20028;-76
2022/05/08 06:22:54;;;;;;;25.52;22.00;;;16.40;99.90;;;;;;5094129;28;20122;-77
2022/05/08 06:25:20;;;;;;;29.13;22.38;;;16.40;99.90;;;;;;5094486;28;20032;-77
2022/05/08 06:27:45;;;;;;;28.88;24.30;;;16.50;99.90;;;;;;5093386;28;20027;-76
2022/05/08 06:30:12;;;;;;;28.80;25.73;;;16.50;99.90;;;;;;5094322;28;20036;-76
2022/05/08 06:32:37;;;;;;;29.92;25.65;;;16.50;99.90;;;;;;5094345;28;20489;-77
2022/05/08 06:35:03;;;;;;;28.67;25.55;;;16.60;99.90;;;;;;5093974;28;20028;-77
2022/05/08 06:37:29;;;;;;;28.23;25.23;;;16.60;99.90;;;;;;5094344;28;20023;-78
2022/05/08 06:39:54;;;;;;;31.13;27.80;;;16.60;99.90;;;;;;5093604;28;20028;-75
2022/05/08 06:42:20;;;;;;;29.08;25.88;;;16.60;99.90;;;;;;5094565;28;20522;-77
2022/05/08 06:44:45;;;;;;;29.55;26.27;;;16.60;99.90;;;;;;5093297;28;20028;-76
2022/05/08 06:47:11;;;;;;;29.73;25.77;;;16.50;99.90;;;;;;5094214;28;20020;-75
2022/05/08 06:49:37;;;;;;;31.90;27.33;;;16.60;99.90;;;;;;5094098;28;20100;-77
2022/05/08 06:52:03;;;;;;;30.67;27.13;;;16.50;99.90;;;;;;5093463;28;20055;-76
2022/05/08 06:54:28;;;;;;;31.13;26.55;;;16.50;99.90;;;;;;5093915;28;20107;-77
2022/05/08 06:56:56;;;;;;;30.55;27.27;;;16.50;99.90;;;;;;5093350;28;20066;-77
2022/05/08 07:02:07;;;;;;;29.05;25.95;;;16.50;99.90;;;;;;5091045;28;20043;-76
2022/05/08 07:04:33;;;;;;;28.77;25.38;;;16.50;99.90;;;;;;5090945;28;20027;-80
2022/05/08 07:07:00;;;;;;;29.30;26.13;;;16.50;99.90;;;;;;5093518;28;20020;-77
2022/05/08 07:09:25;;;;;;;29.77;25.50;;;16.60;99.90;;;;;;5094122;28;20090;-76
2022/05/08 07:11:51;;;;;;;29.75;26.52;;;16.60;99.90;;;;;;5093109;28;20517;-78
2022/05/08 07:14:17;;;;;;;28.40;24.27;;;16.60;99.90;;;;;;5093200;28;20040;-78
2022/05/08 07:16:43;;;;;;;28.85;25.85;;;16.60;99.90;;;;;;5094009;28;20051;-76
2022/05/08 07:19:10;;;;;;;28.52;24.88;;;16.60;99.90;;;;;;5093002;28;20039;-76
2022/05/08 07:21:36;;;;;;;28.67;25.65;;;16.60;99.90;;;;;;5093400;28;20085;-75
2022/05/08 07:24:01;;;;;;;26.73;23.77;;;16.70;99.90;;;;;;5092198;28;20465;-75
2022/05/08 07:26:27;;;;;;;25.38;22.70;;;16.70;99.90;;;;;;5093465;28;20055;-75
2022/05/08 07:28:53;;;;;;;26.45;20.83;;;16.70;99.90;;;;;;5092963;28;20384;-75
2022/05/08 07:31:18;;;;;;;27.55;21.63;;;16.80;99.90;;;;;;5092955;28;20478;-79
2022/05/08 07:33:44;;;;;;;28.52;23.88;;;16.80;99.90;;;;;;5093523;28;20028;-77
2022/05/08 07:36:12;;;;;;;28.65;24.45;;;16.90;99.90;;;;;;5091625;28;20440;-76
2022/05/08 07:38:43;;;;;;;26.70;23.75;;;16.90;99.90;;;;;;5093194;28;20108;-77
2022/05/08 07:41:15;;;;;;;24.75;21.83;;;16.90;99.90;;;;;;5092699;28;20307;-75
2022/05/08 07:43:41;;;;;;;23.35;19.30;;;17.00;99.90;;;;;;5092464;28;20438;-76
2022/05/08 07:46:06;;;;;;;24.38;19.10;;;17.00;97.70;;;;;;5094654;28;20024;-77
2022/05/08 07:48:32;;;;;;;22.77;18.25;;;17.00;96.40;;;;;;5072541;28;20089;-77
2022/05/08 07:51:00;;;;;;;23.27;19.45;;;17.00;96.20;;;;;;5072193;28;20060;-78
2022/05/08 07:53:29;;;;;;;21.42;19.00;;;17.10;95.40;;;;;;5072615;28;20028;-78
2022/05/08 07:55:55;;;;;;;23.27;18.77;;;17.20;95.50;;;;;;5072136;28;20028;-77
2022/05/08 07:58:22;;;;;;;20.73;18.35;;;17.20;95.20;;;;;;5072414;28;20025;-77
2022/05/08 08:00:49;;;;;;;21.27;18.25;;;17.20;94.50;;;;;;5072481;28;20036;-77
2022/05/08 08:03:18;;;;;;;23.60;18.23;;;17.30;93.70;;;;;;5071867;28;20031;-77
2022/05/08 08:05:44;;;;;;;20.92;17.35;;;17.30;93.10;;;;;;5072509;28;20099;-77
2022/05/08 08:08:09;;;;;;;21.38;18.10;;;17.40;92.80;;;;;;5071508;28;20107;-77
2022/05/08 08:10:35;;;;;;;19.85;17.08;;;17.40;92.90;;;;;;5072277;28;20024;-77
2022/05/08 08:13:01;;;;;;;22.15;17.85;;;17.50;92.50;;;;;;5071837;28;20445;-78
2022/05/08 08:15:27;;;;;;;21.92;17.90;;;17.50;92.00;;;;;;5072073;28;20048;-78
2022/05/08 08:17:53;;;;;;;25.02;18.83;;;17.60;91.80;;;;;;5070342;28;20481;-76
2022/05/08 08:20:18;;;;;;;19.48;16.98;;;17.60;91.90;;;;;;5071798;28;20032;-76
2022/05/08 08:22:44;;;;;;;21.90;17.17;;;17.70;92.20;;;;;;5076606;28;20094;-77
2022/05/08 08:25:10;;;;;;;21.40;17.52;;;17.80;92.00;;;;;;5091677;28;20027;-77
2022/05/08 08:27:35;;;;;;;22.73;16.95;;;17.80;91.80;;;;;;5092776;28;20032;-77
2022/05/08 08:30:03;;;;;;;21.33;16.02;;;17.90;90.70;;;;;;5091693;28;20043;-77
2022/05/08 08:32:31;;;;;;;21.80;18.10;;;18.00;90.60;;;;;;5092029;28;20077;-77
2022/05/08 08:34:57;;;;;;;19.92;17.02;;;18.10;90.20;;;;;;5091234;28;20099;-78
2022/05/08 08:37:23;;;;;;;21.15;17.90;;;18.20;90.00;;;;;;5109171;28;20027;-77
2022/05/08 08:39:49;;;;;;;18.77;16.80;;;18.30;88.50;;;;;;5112282;28;20099;-77
2022/05/08 08:42:28;;;;;;;19.95;17.80;;;18.30;88.30;;;;;;5111310;28;20084;-76
2022/05/08 08:48:15;;;;;;;20.10;18.00;;;18.40;86.90;;;;;;5028360;28;20033;-76
2022/05/08 08:50:41;;;;;;;21.45;18.83;;;18.50;86.20;;;;;;5029197;28;20154;-77
2022/05/08 08:53:07;;;;;;;22.48;19.05;;;18.50;84.90;;;;;;5060439;28;20028;-76
2022/05/08 08:55:33;;;;;;;23.00;19.92;;;18.50;84.20;;;;;;5091773;28;20396;-75
2022/05/08 08:58:00;;;;;;;21.65;18.63;;;18.50;84.30;;;;;;5091016;28;20346;-76
2022/05/08 09:00:26;;;;;;;24.42;20.17;;;18.60;84.90;;;;;;5091544;28;20107;-77
2022/05/08 09:02:53;;;;;;;23.27;19.67;;;18.60;84.50;;;;;;5091686;28;20031;-76
2022/05/08 09:05:19;;;;;;;22.65;19.73;;;18.60;84.90;;;;;;5091248;28;20115;-76
2022/05/08 09:07:50;;;;;;;23.45;19.65;;;18.60;84.80;;;;;;5091587;28;20111;-77
2022/05/08 09:10:27;;;;;;;24.65;20.73;;;18.70;84.40;;;;;;5090880;28;20049;-76
2022/05/08 09:12:53;;;;;;;21.58;19.30;;;18.70;83.00;;;;;;5091878;28;20407;-76
2022/05/08 09:15:31;;;;;;;23.40;19.80;;;18.70;83.00;;;;;;5090599;28;20047;-77
2022/05/08 09:18:11;;;;;;;21.95;19.65;;;18.70;83.00;;;;;;5091134;28;20073;-75
2022/05/08 09:20:46;;;;;;;23.70;19.25;;;18.80;84.10;;;;;;5091554;28;20024;-76
2022/05/08 09:23:15;;;;;;;23.98;19.35;;;18.80;84.30;;;;;;5091063;28;20029;-77
2022/05/08 09:25:44;;;;;;;22.25;20.02;;;18.80;83.90;;;;;;5091341;28;20073;-75
2022/05/08 09:28:13;;;;;;;20.33;18.33;;;18.80;84.10;;;;;;5090591;28;20438;-76
2022/05/08 09:30:55;;;;;;;21.80;19.42;;;18.90;84.30;;;;;;5091374;28;20050;-74
2022/05/08 09:33:35;;;;;;;22.05;18.00;;;18.90;83.30;;;;;;5091021;28;20021;-73
2022/05/08 09:36:05;;;;;;;22.08;19.58;;;18.90;84.60;;;;;;5090909;28;20102;-69
2022/05/08 09:38:41;;;;;;;24.05;18.15;;;19.00;84.90;;;;;;5091525;28;20055;-69
2022/05/08 09:41:08;;;;;;;22.90;19.85;;;19.00;84.40;;;;;;5090731;28;20034;-69
2022/05/08 09:43:34;;;;;;;24.38;20.20;;;19.00;84.30;;;;;;5091258;28;20032;-70
2022/05/08 09:46:01;;;;;;;24.73;20.42;;;19.00;85.30;;;;;;5090764;28;20074;-69
2022/05/08 09:48:28;;;;;;;21.25;19.02;;;19.00;86.00;;;;;;5090689;28;20050;-70
2022/05/08 09:50:57;;;;;;;21.45;18.98;;;18.90;85.90;;;;;;5091306;28;20028;-69
2022/05/08 09:53:24;;;;;;;22.77;19.58;;;19.00;86.50;;;;;;5090969;28;20020;-69
2022/05/08 09:55:52;;;;;;;21.23;18.92;;;19.00;86.00;;;;;;5091411;28;20028;-68
2022/05/08 09:58:18;;;;;;;21.95;18.98;;;19.00;85.40;;;;;;5091246;28;20496;-68
2022/05/08 10:00:45;;;;;;;22.15;19.30;;;18.90;85.20;;;;;;5095009;28;20099;-69
2022/05/08 10:03:11;;;;;;;22.10;19.60;;;18.90;86.10;;;;;;5094195;28;20034;-69
2022/05/08 10:05:37;;;;;;;22.33;19.33;;;18.90;86.60;;;;;;5095237;28;20016;-69
2022/05/08 10:08:04;;;;;;;20.38;16.55;;;18.90;86.40;;;;;;5094021;28;20379;-69
2022/05/08 10:16:42;;;;;;;22.90;17.85;;;19.00;85.70;;;;;;5091802;28;20040;-68
2022/05/08 10:19:22;;;;;;;20.95;18.85;;;19.00;86.90;;;;;;5089466;28;20515;-68
2022/05/08 10:21:56;;;;;;;20.53;18.43;;;19.00;87.10;;;;;;5087104;28;20036;-69
2022/05/08 10:24:31;;;;;;;21.55;18.50;;;19.00;86.10;;;;;;5093594;28;20039;-69
2022/05/08 10:27:16;;;;;;;22.23;17.63;;;19.00;86.50;;;;;;5091905;28;20020;-69
2022/05/08 10:29:50;;;;;;;21.08;18.80;;;19.00;86.40;;;;;;5092641;28;20032;-70
2022/05/08 10:32:28;;;;;;;21.98;18.80;;;19.00;86.60;;;;;;5093405;28;20028;-71
2022/05/08 10:35:13;;;;;;;20.23;18.23;;;19.10;87.00;;;;;;5093977;28;20024;-69
2022/05/08 10:37:50;;;;;;;19.08;16.92;;;19.10;86.60;;;;;;5094132;28;20077;-69
2022/05/08 10:40:36;;;;;;;18.15;16.15;;;19.10;85.50;;;;;;5093752;28;20028;-69
2022/05/08 10:43:14;;;;;;;20.25;17.30;;;19.10;83.60;;;;;;5094069;28;20016;-69
2022/05/08 10:45:43;;;;;;;19.67;17.65;;;19.10;83.80;;;;;;5094269;28;20046;-70
2022/05/08 10:48:14;;;;;;;19.27;16.95;;;19.10;84.70;;;;;;5093268;28;20414;-69
2022/05/08 10:50:46;;;;;;;19.15;17.17;;;19.10;85.10;;;;;;5094103;28;20036;-69
2022/05/08 10:53:32;;;;;;;20.38;17.10;;;19.00;85.90;;;;;;5093471;28;20056;-70
2022/05/08 10:56:04;;;;;;;20.27;17.67;;;19.00;83.60;;;;;;5094142;28;20031;-69
2022/05/08 10:58:30;;;;;;;19.30;17.20;;;19.10;84.40;;;;;;5093990;28;20098;-69
2022/05/08 11:01:00;;;;;;;20.10;16.15;;;19.10;85.20;;;;;;5093934;28;20067;-69
2022/05/08 11:03:26;;;;;;;20.17;18.15;;;19.10;85.60;;;;;;5092814;28;20107;-69
2022/05/08 11:05:53;;;;;;;20.00;17.85;;;19.10;86.00;;;;;;5093489;28;20028;-69
2022/05/08 11:08:23;;;;;;;19.27;17.30;;;19.10;86.20;;;;;;5092939;28;20483;-70
2022/05/08 11:10:57;;;;;;;19.90;16.77;;;19.10;86.60;;;;;;5093866;28;20093;-69
2022/05/08 11:13:23;;;;;;;18.13;16.30;;;19.20;85.50;;;;;;5093148;28;20089;-69
2022/05/08 11:15:50;;;;;;;18.60;16.73;;;19.20;85.00;;;;;;5093334;28;20396;-69
2022/05/08 11:18:25;;;;;;;20.77;17.95;;;19.30;84.70;;;;;;5093165;28;20032;-69
2022/05/08 11:21:02;;;;;;;18.98;17.08;;;19.30;84.30;;;;;;5093613;28;20032;-68
2022/05/08 11:23:33;;;;;;;19.08;17.10;;;19.40;84.40;;;;;;5093624;28;20024;-69
2022/05/08 11:26:05;;;;;;;20.10;16.73;;;19.40;83.50;;;;;;5093408;28;20039;-68
2022/05/08 11:28:32;;;;;;;21.02;16.30;;;19.50;84.20;;;;;;5093582;28;20055;-69
2022/05/08 11:30:59;;;;;;;16.08;14.48;;;19.50;83.40;;;;;;5093336;28;20047;-70
2022/05/08 11:36:31;;;;;;;16.60;14.93;;;19.60;79.90;;;;;;5092759;28;20043;-69
2022/05/08 11:39:05;;;;;;;18.48;15.00;;;19.60;80.20;;;;;;5093197;28;20028;-70
2022/05/08 11:41:39;;;;;;;13.80;12.15;;;19.70;80.80;;;;;;5092826;28;20081;-70
2022/05/08 11:44:24;;;;;;;16.38;13.52;;;19.80;79.40;;;;;;5092283;28;20059;-69
2022/05/08 11:46:54;;;;;;;16.52;14.10;;;19.80;77.50;;;;;;5093035;28;20032;-70
2022/05/08 11:49:19;;;;;;;15.25;13.65;;;19.80;77.30;;;;;;5092320;28;20499;-69
2022/05/08 11:52:09;;;;;;;12.93;11.63;;;19.90;77.70;;;;;;5093635;28;20020;-69
2022/05/08 11:54:37;;;;;;;12.85;11.40;;;19.90;76.70;;;;;;5092324;28;20097;-69
2022/05/08 11:57:17;;;;;;;14.02;12.63;;;19.90;76.60;;;;;;5093012;28;20107;-69
2022/05/08 11:59:47;;;;;;;14.88;13.27;;;20.00;76.10;;;;;;5092787;28;20024;-69
2022/05/08 12:02:14;;;;;;;16.00;14.13;;;20.10;77.00;;;;;;5092126;28;20445;-69
2022/05/08 12:04:41;;;;;;;13.32;12.00;;;20.10;76.70;;;;;;5092859;28;20187;-69
2022/05/08 12:07:11;;;;;;;12.80;11.50;;;20.20;76.00;;;;;;5092595;28;20051;-70
2022/05/08 12:09:51;;;;;;;13.57;12.25;;;20.20;74.90;;;;;;5092525;28;20107;-68
2022/05/08 12:12:37;;;;;;;10.85;9.35;;;20.20;74.50;;;;;;5091755;28;20027;-67
2022/05/08 12:15:06;;;;;;;10.82;9.30;;;20.20;72.90;;;;;;5092384;28;20048;-68
2022/05/08 12:17:53;;;;;;;11.55;10.30;;;20.30;72.00;;;;;;5092389;28;20337;-69
2022/05/08 12:20:27;;;;;;;12.65;10.93;;;20.40;72.20;;;;;;5091495;28;20499;-68
2022/05/08 12:23:08;;;;;;;13.18;10.90;;;20.50;73.20;;;;;;5092061;28;20081;-68
2022/05/08 12:25:41;;;;;;;12.20;10.07;;;20.50;72.50;;;;;;5092213;28;20028;-68
2022/05/08 12:28:07;;;;;;;37.70;11.23;;;20.50;71.10;;;;;;5091327;28;20024;-69
2022/05/08 12:30:34;;;;;;;9.68;8.73;;;20.60;72.40;;;;;;5092023;28;20465;-69
2022/05/08 12:32:59;;;;;;;10.60;9.38;;;20.60;70.10;;;;;;5092123;28;20035;-68
2022/05/08 12:35:25;;;;;;;10.52;8.43;;;20.60;68.90;;;;;;5091484;28;20044;-68
2022/05/08 12:37:51;;;;;;;13.70;10.07;;;20.70;67.60;;;;;;5092009;28;20020;-68
2022/05/08 12:40:17;;;;;;;13.98;12.40;;;20.80;69.90;;;;;;5091482;28;20432;-69
2022/05/08 12:42:43;;;;;;;14.18;10.77;;;20.80;72.20;;;;;;5092112;28;20020;-69
2022/05/08 12:45:10;;;;;;;11.00;9.95;;;20.80;68.70;;;;;;5092038;28;20461;-70
2022/05/08 12:47:36;;;;;;;13.38;11.15;;;20.80;68.00;;;;;;5092467;28;20048;-69
2022/05/08 12:50:03;;;;;;;12.10;10.88;;;20.80;70.20;;;;;;5091739;28;20483;-70
2022/05/08 12:52:29;;;;;;;11.15;9.82;;;20.90;70.40;;;;;;5091226;28;20457;-69
2022/05/08 12:54:54;;;;;;;14.60;9.45;;;20.90;69.90;;;;;;5091920;28;20020;-69
2022/05/08 13:00:06;;;;;;;8.85;6.65;;;20.90;67.60;;;;;;5091119;28;20118;-70
2022/05/08 13:02:31;;;;;;;6.13;5.53;;;21.00;65.70;;;;;;5091757;28;20028;-69